sensor_id;sensor_type;location;lat;lon;timestamp;pressure;altitude;pressure_sealevel;temperature;humidity
41230;BME280;26964;50.428;19.218;2024-02-23T00:00:08;998.3;;;8.6;71.0
41230;BME280;26964;50.428;19.218;2024-02-23T00:01:06;998.3;;;8.6;71.1
41230;BME280;26964;50.428;19.218;2024-02-23T00:02:04;998.3;;;8.6;71.1
41230;BME280;26964;50.428;19.218;2024-02-23T00:03:05;998.2;;;8.6;71.1
41230;BME280;26964;50.428;19.218;2024-02-23T00:04:04;998.2;;;8.6;71.1
41230;BME280;26964;50.428;19.218;2024-02-23T00:05:06;998.3;;;8.6;71.1
41230;BME280;26964;50.428;19.218;2024-02-23T00:06:04;998.3;;;8.6;71.1
41230;BME280;26964;50.428;19.218;2024-02-23T00:07:04;998.4;;;8.6;71.1
41230;BME280;26964;50.428;19.218;2024-02-23T00:08:06;998.4;;;8.6;71.1
41230;BME280;26964;50.428;19.218;2024-02-23T00:09:05;998.4;;;8.5;71.1
41230;BME280;26964;50.428;19.218;2024-02-23T00:10:05;998.3;;;8.5;71.1
41230;BME280;26964;50.428;19.218;2024-02-23T00:11:05;998.3;;;8.5;71.1
41230;BME280;26964;50.428;19.218;2024-02-23T00:12:05;998.4;;;8.5;71.1
41230;BME280;26964;50.428;19.218;2024-02-23T00:13:04;998.3;;;8.5;71.1
41230;BME280;26964;50.428;19.218;2024-02-23T00:14:05;998.3;;;8.5;71.1
41230;BME280;26964;50.428;19.218;2024-02-23T00:15:05;998.3;;;8.5;71.1
41230;BME280;26964;50.428;19.218;2024-02-23T00:16:05;998.3;;;8.5;71.1
41230;BME280;26964;50.428;19.218;2024-02-23T00:17:04;998.3;;;8.5;71.1
41230;BME280;26964;50.428;19.218;2024-02-23T00:18:04;998.3;;;8.5;71.2
41230;BME280;26964;50.428;19.218;2024-02-23T00:19:06;998.3;;;8.5;71.1
41230;BME280;26964;50.428;19.218;2024-02-23T00:20:05;998.3;;;8.5;71.1
41230;BME280;26964;50.428;19.218;2024-02-23T00:21:04;998.3;;;8.5;71.1
41230;BME280;26964;50.428;19.218;2024-02-23T00:22:06;998.3;;;8.5;71.1
41230;BME280;26964;50.428;19.218;2024-02-23T00:23:09;998.3;;;8.5;71.1
41230;BME280;26964;50.428;19.218;2024-02-23T00:24:04;998.4;;;8.5;71.1
41230;BME280;26964;50.428;19.218;2024-02-23T00:25:05;998.4;;;8.5;71.2
41230;BME280;26964;50.428;19.218;2024-02-23T00:26:05;998.4;;;8.5;71.2
41230;BME280;26964;50.428;19.218;2024-02-23T00:27:04;998.3;;;8.5;71.2
41230;BME280;26964;50.428;19.218;2024-02-23T00:28:05;998.3;;;8.5;71.2
41230;BME280;26964;50.428;19.218;2024-02-23T00:29:05;998.4;;;8.5;71.2
41230;BME280;26964;50.428;19.218;2024-02-23T00:30:05;998.3;;;8.5;71.2
41230;BME280;26964;50.428;19.218;2024-02-23T00:31:04;998.3;;;8.5;71.2
41230;BME280;26964;50.428;19.218;2024-02-23T00:32:05;998.3;;;8.5;71.2
41230;BME280;26964;50.428;19.218;2024-02-23T00:33:04;998.3;;;8.5;71.2
41230;BME280;26964;50.428;19.218;2024-02-23T00:34:05;998.3;;;8.5;71.2
41230;BME280;26964;50.428;19.218;2024-02-23T00:35:05;998.2;;;8.5;71.2
41230;BME280;26964;50.428;19.218;2024-02-23T00:36:04;998.2;;;8.5;71.2
41230;BME280;26964;50.428;19.218;2024-02-23T00:37:04;998.3;;;8.5;71.2
41230;BME280;26964;50.428;19.218;2024-02-23T00:38:04;998.2;;;8.4;71.2
41230;BME280;26964;50.428;19.218;2024-02-23T00:39:04;998.4;;;8.4;71.2
41230;BME280;26964;50.428;19.218;2024-02-23T00:40:05;998.2;;;8.4;71.2
41230;BME280;26964;50.428;19.218;2024-02-23T00:41:05;998.2;;;8.4;71.2
41230;BME280;26964;50.428;19.218;2024-02-23T00:42:05;998.2;;;8.4;71.2
41230;BME280;26964;50.428;19.218;2024-02-23T00:43:06;998.2;;;8.4;71.2
41230;BME280;26964;50.428;19.218;2024-02-23T00:45:05;998.2;;;8.4;71.2
41230;BME280;26964;50.428;19.218;2024-02-23T00:46:04;998.2;;;8.4;71.2
41230;BME280;26964;50.428;19.218;2024-02-23T00:47:05;998.3;;;8.4;71.2
41230;BME280;26964;50.428;19.218;2024-02-23T00:48:05;998.3;;;8.4;71.2
41230;BME280;26964;50.428;19.218;2024-02-23T00:49:05;998.2;;;8.3;71.3
41230;BME280;26964;50.428;19.218;2024-02-23T00:50:05;998.2;;;8.3;71.3
41230;BME280;26964;50.428;19.218;2024-02-23T00:51:05;998.2;;;8.3;71.3
41230;BME280;26964;50.428;19.218;2024-02-23T00:52:04;998.2;;;8.3;71.3
41230;BME280;26964;50.428;19.218;2024-02-23T00:53:04;998.2;;;8.3;71.3
41230;BME280;26964;50.428;19.218;2024-02-23T00:54:04;998.2;;;8.3;71.3
41230;BME280;26964;50.428;19.218;2024-02-23T00:55:05;998.1;;;8.3;71.4
41230;BME280;26964;50.428;19.218;2024-02-23T00:56:05;998.2;;;8.3;71.4
41230;BME280;26964;50.428;19.218;2024-02-23T00:57:04;998.1;;;8.3;71.4
41230;BME280;26964;50.428;19.218;2024-02-23T00:58:05;998.1;;;8.3;71.4
41230;BME280;26964;50.428;19.218;2024-02-23T00:59:04;998.1;;;8.3;71.4
41230;BME280;26964;50.428;19.218;2024-02-23T01:00:05;998.2;;;8.3;71.4
41230;BME280;26964;50.428;19.218;2024-02-23T01:01:04;998.1;;;8.3;71.5
41230;BME280;26964;50.428;19.218;2024-02-23T01:02:04;998.1;;;8.3;71.5
41230;BME280;26964;50.428;19.218;2024-02-23T01:03:05;998.2;;;8.3;71.5
41230;BME280;26964;50.428;19.218;2024-02-23T01:04:06;998.2;;;8.3;71.5
41230;BME280;26964;50.428;19.218;2024-02-23T01:05:05;998.2;;;8.3;71.5
41230;BME280;26964;50.428;19.218;2024-02-23T01:06:05;998.2;;;8.3;71.5
41230;BME280;26964;50.428;19.218;2024-02-23T01:07:05;998.2;;;8.3;71.5
41230;BME280;26964;50.428;19.218;2024-02-23T01:08:05;998.2;;;8.3;71.5
41230;BME280;26964;50.428;19.218;2024-02-23T01:09:05;998.2;;;8.2;71.6
41230;BME280;26964;50.428;19.218;2024-02-23T01:10:05;998.1;;;8.3;71.6
41230;BME280;26964;50.428;19.218;2024-02-23T01:11:05;998.2;;;8.3;71.5
41230;BME280;26964;50.428;19.218;2024-02-23T01:12:04;998.1;;;8.3;71.6
41230;BME280;26964;50.428;19.218;2024-02-23T01:13:05;998.2;;;8.3;71.6
41230;BME280;26964;50.428;19.218;2024-02-23T01:14:04;998.2;;;8.3;71.6
41230;BME280;26964;50.428;19.218;2024-02-23T01:15:05;998.2;;;8.3;71.6
41230;BME280;26964;50.428;19.218;2024-02-23T01:16:04;998.3;;;8.2;71.6
41230;BME280;26964;50.428;19.218;2024-02-23T01:17:05;998.2;;;8.2;71.6
41230;BME280;26964;50.428;19.218;2024-02-23T01:18:04;998.3;;;8.2;71.6
41230;BME280;26964;50.428;19.218;2024-02-23T01:19:05;998.3;;;8.2;71.6
41230;BME280;26964;50.428;19.218;2024-02-23T01:20:05;998.3;;;8.2;71.6
41230;BME280;26964;50.428;19.218;2024-02-23T01:21:04;998.3;;;8.2;71.6
41230;BME280;26964;50.428;19.218;2024-02-23T01:22:04;998.3;;;8.2;71.6
41230;BME280;26964;50.428;19.218;2024-02-23T01:23:05;998.3;;;8.2;71.6
41230;BME280;26964;50.428;19.218;2024-02-23T01:24:04;998.4;;;8.2;71.6
41230;BME280;26964;50.428;19.218;2024-02-23T01:25:06;998.4;;;8.2;71.6
41230;BME280;26964;50.428;19.218;2024-02-23T01:26:05;998.4;;;8.1;71.6
41230;BME280;26964;50.428;19.218;2024-02-23T01:27:04;998.4;;;8.1;71.6
41230;BME280;26964;50.428;19.218;2024-02-23T01:28:04;998.4;;;8.1;71.6
41230;BME280;26964;50.428;19.218;2024-02-23T01:29:05;998.4;;;8.1;71.6
41230;BME280;26964;50.428;19.218;2024-02-23T01:30:05;998.4;;;8.1;71.6
41230;BME280;26964;50.428;19.218;2024-02-23T01:32:05;998.4;;;8.1;71.7
41230;BME280;26964;50.428;19.218;2024-02-23T01:33:04;998.4;;;8.1;71.7
41230;BME280;26964;50.428;19.218;2024-02-23T01:34:04;998.3;;;8.1;71.7
41230;BME280;26964;50.428;19.218;2024-02-23T01:35:05;998.3;;;8.1;71.7
41230;BME280;26964;50.428;19.218;2024-02-23T01:36:04;998.3;;;8.0;71.7
41230;BME280;26964;50.428;19.218;2024-02-23T01:37:05;998.3;;;8.0;71.7
41230;BME280;26964;50.428;19.218;2024-02-23T01:38:04;998.3;;;8.0;71.8
41230;BME280;26964;50.428;19.218;2024-02-23T01:39:04;998.3;;;8.0;71.8
41230;BME280;26964;50.428;19.218;2024-02-23T01:40:05;998.3;;;8.0;71.8
41230;BME280;26964;50.428;19.218;2024-02-23T01:41:04;998.3;;;8.0;71.8
41230;BME280;26964;50.428;19.218;2024-02-23T01:42:04;998.2;;;7.9;71.8
41230;BME280;26964;50.428;19.218;2024-02-23T01:43:05;998.2;;;7.9;71.8
41230;BME280;26964;50.428;19.218;2024-02-23T01:44:04;998.2;;;7.9;71.9
41230;BME280;26964;50.428;19.218;2024-02-23T01:45:05;998.2;;;7.9;71.9
41230;BME280;26964;50.428;19.218;2024-02-23T01:46:07;998.3;;;7.9;71.9
41230;BME280;26964;50.428;19.218;2024-02-23T01:47:04;998.3;;;7.9;71.9
41230;BME280;26964;50.428;19.218;2024-02-23T01:48:05;998.3;;;7.9;72.0
41230;BME280;26964;50.428;19.218;2024-02-23T01:49:06;998.3;;;7.9;72.0
41230;BME280;26964;50.428;19.218;2024-02-23T01:50:05;998.3;;;7.9;72.0
41230;BME280;26964;50.428;19.218;2024-02-23T01:51:04;998.3;;;7.9;72.0
41230;BME280;26964;50.428;19.218;2024-02-23T01:52:04;998.3;;;7.9;72.1
41230;BME280;26964;50.428;19.218;2024-02-23T01:53:05;998.3;;;7.9;72.1
41230;BME280;26964;50.428;19.218;2024-02-23T01:54:05;998.3;;;7.9;72.1
41230;BME280;26964;50.428;19.218;2024-02-23T01:55:04;998.4;;;7.9;72.1
41230;BME280;26964;50.428;19.218;2024-02-23T01:56:05;998.3;;;7.9;72.1
41230;BME280;26964;50.428;19.218;2024-02-23T01:57:04;998.3;;;7.9;72.1
41230;BME280;26964;50.428;19.218;2024-02-23T01:58:04;998.3;;;7.9;72.1
41230;BME280;26964;50.428;19.218;2024-02-23T01:59:05;998.3;;;7.9;72.1
41230;BME280;26964;50.428;19.218;2024-02-23T02:00:06;998.2;;;7.8;72.1
41230;BME280;26964;50.428;19.218;2024-02-23T02:01:05;998.2;;;7.8;72.1
41230;BME280;26964;50.428;19.218;2024-02-23T02:02:04;998.2;;;7.8;72.2
41230;BME280;26964;50.428;19.218;2024-02-23T02:03:04;998.3;;;7.9;72.2
41230;BME280;26964;50.428;19.218;2024-02-23T02:04:04;998.2;;;7.9;72.2
41230;BME280;26964;50.428;19.218;2024-02-23T02:05:05;998.2;;;7.9;72.2
41230;BME280;26964;50.428;19.218;2024-02-23T02:06:05;998.2;;;7.9;72.2
41230;BME280;26964;50.428;19.218;2024-02-23T02:07:07;998.2;;;7.9;72.2
41230;BME280;26964;50.428;19.218;2024-02-23T02:08:05;998.1;;;7.9;72.2
41230;BME280;26964;50.428;19.218;2024-02-23T02:09:04;998.1;;;7.9;72.3
41230;BME280;26964;50.428;19.218;2024-02-23T02:10:07;998.1;;;7.9;72.3
41230;BME280;26964;50.428;19.218;2024-02-23T02:11:05;998.1;;;7.9;72.3
41230;BME280;26964;50.428;19.218;2024-02-23T02:12:04;998.0;;;7.9;72.3
41230;BME280;26964;50.428;19.218;2024-02-23T02:13:05;998.1;;;7.9;72.3
41230;BME280;26964;50.428;19.218;2024-02-23T02:14:04;998.0;;;7.9;72.3
41230;BME280;26964;50.428;19.218;2024-02-23T02:15:05;998.1;;;7.9;72.4
41230;BME280;26964;50.428;19.218;2024-02-23T02:16:04;998.1;;;7.9;72.4
41230;BME280;26964;50.428;19.218;2024-02-23T02:17:04;998.1;;;8.0;72.4
41230;BME280;26964;50.428;19.218;2024-02-23T02:18:04;998.1;;;8.0;72.4
41230;BME280;26964;50.428;19.218;2024-02-23T02:19:05;998.1;;;8.0;72.4
41230;BME280;26964;50.428;19.218;2024-02-23T02:20:05;998.1;;;8.0;72.4
41230;BME280;26964;50.428;19.218;2024-02-23T02:21:05;998.1;;;8.0;72.4
41230;BME280;26964;50.428;19.218;2024-02-23T02:22:04;998.1;;;8.0;72.4
41230;BME280;26964;50.428;19.218;2024-02-23T02:23:05;998.1;;;8.0;72.3
41230;BME280;26964;50.428;19.218;2024-02-23T02:24:04;998.1;;;8.0;72.3
41230;BME280;26964;50.428;19.218;2024-02-23T02:25:05;998.1;;;8.1;72.3
41230;BME280;26964;50.428;19.218;2024-02-23T02:26:04;998.1;;;8.1;72.3
41230;BME280;26964;50.428;19.218;2024-02-23T02:27:04;998.1;;;8.1;72.3
41230;BME280;26964;50.428;19.218;2024-02-23T02:28:07;998.1;;;8.1;72.3
41230;BME280;26964;50.428;19.218;2024-02-23T02:29:04;998.0;;;8.1;72.3
41230;BME280;26964;50.428;19.218;2024-02-23T02:30:05;998.1;;;8.1;72.3
41230;BME280;26964;50.428;19.218;2024-02-23T02:31:05;998.1;;;8.1;72.3
41230;BME280;26964;50.428;19.218;2024-02-23T02:32:04;998.1;;;8.1;72.3
41230;BME280;26964;50.428;19.218;2024-02-23T02:33:04;998.2;;;8.1;72.3
41230;BME280;26964;50.428;19.218;2024-02-23T02:34:04;998.1;;;8.1;72.3
41230;BME280;26964;50.428;19.218;2024-02-23T02:35:05;998.1;;;8.1;72.3
41230;BME280;26964;50.428;19.218;2024-02-23T02:36:04;998.1;;;8.1;72.3
41230;BME280;26964;50.428;19.218;2024-02-23T02:37:05;998.1;;;8.1;72.3
41230;BME280;26964;50.428;19.218;2024-02-23T02:38:05;998.1;;;8.1;72.3
41230;BME280;26964;50.428;19.218;2024-02-23T02:39:05;998.1;;;8.1;72.3
41230;BME280;26964;50.428;19.218;2024-02-23T02:40:05;998.1;;;8.1;72.3
41230;BME280;26964;50.428;19.218;2024-02-23T02:41:04;998.1;;;8.2;72.3
41230;BME280;26964;50.428;19.218;2024-02-23T02:42:04;998.1;;;8.2;72.3
41230;BME280;26964;50.428;19.218;2024-02-23T02:43:04;998.1;;;8.2;72.3
41230;BME280;26964;50.428;19.218;2024-02-23T02:44:05;998.1;;;8.2;72.3
41230;BME280;26964;50.428;19.218;2024-02-23T02:45:04;998.1;;;8.2;72.3
41230;BME280;26964;50.428;19.218;2024-02-23T02:46:05;998.3;;;8.2;72.3
41230;BME280;26964;50.428;19.218;2024-02-23T02:47:04;998.2;;;8.2;72.3
41230;BME280;26964;50.428;19.218;2024-02-23T02:48:05;998.2;;;8.2;72.3
41230;BME280;26964;50.428;19.218;2024-02-23T02:49:07;998.3;;;8.2;72.3
41230;BME280;26964;50.428;19.218;2024-02-23T02:50:05;998.3;;;8.3;72.3
41230;BME280;26964;50.428;19.218;2024-02-23T02:51:05;998.3;;;8.3;72.3
41230;BME280;26964;50.428;19.218;2024-02-23T02:52:05;998.2;;;8.3;72.3
41230;BME280;26964;50.428;19.218;2024-02-23T02:53:05;998.4;;;8.3;72.3
41230;BME280;26964;50.428;19.218;2024-02-23T02:54:05;998.3;;;8.3;72.3
41230;BME280;26964;50.428;19.218;2024-02-23T02:55:04;998.3;;;8.3;72.3
41230;BME280;26964;50.428;19.218;2024-02-23T02:56:05;998.4;;;8.3;72.3
41230;BME280;26964;50.428;19.218;2024-02-23T02:57:04;998.3;;;8.3;72.3
41230;BME280;26964;50.428;19.218;2024-02-23T02:58:05;998.3;;;8.4;72.3
41230;BME280;26964;50.428;19.218;2024-02-23T02:59:04;998.3;;;8.4;72.3
41230;BME280;26964;50.428;19.218;2024-02-23T03:00:05;998.4;;;8.4;72.3
41230;BME280;26964;50.428;19.218;2024-02-23T03:01:04;998.3;;;8.4;72.3
41230;BME280;26964;50.428;19.218;2024-02-23T03:02:05;998.3;;;8.4;72.2
41230;BME280;26964;50.428;19.218;2024-02-23T03:03:04;998.4;;;8.4;72.2
41230;BME280;26964;50.428;19.218;2024-02-23T03:04:04;998.3;;;8.4;72.3
41230;BME280;26964;50.428;19.218;2024-02-23T03:05:05;998.4;;;8.3;72.3
41230;BME280;26964;50.428;19.218;2024-02-23T03:06:04;998.3;;;8.3;72.3
41230;BME280;26964;50.428;19.218;2024-02-23T03:07:05;998.3;;;8.3;72.3
41230;BME280;26964;50.428;19.218;2024-02-23T03:08:05;998.4;;;8.3;72.3
41230;BME280;26964;50.428;19.218;2024-02-23T03:09:04;998.3;;;8.3;72.3
41230;BME280;26964;50.428;19.218;2024-02-23T03:10:07;998.4;;;8.3;72.3
41230;BME280;26964;50.428;19.218;2024-02-23T03:11:05;998.4;;;8.3;72.3
41230;BME280;26964;50.428;19.218;2024-02-23T03:12:05;998.4;;;8.3;72.3
41230;BME280;26964;50.428;19.218;2024-02-23T03:13:05;998.3;;;8.3;72.3
41230;BME280;26964;50.428;19.218;2024-02-23T03:14:04;998.3;;;8.3;72.3
41230;BME280;26964;50.428;19.218;2024-02-23T03:15:05;998.3;;;8.3;72.3
41230;BME280;26964;50.428;19.218;2024-02-23T03:16:04;998.3;;;8.3;72.3
41230;BME280;26964;50.428;19.218;2024-02-23T03:17:05;998.2;;;8.3;72.4
41230;BME280;26964;50.428;19.218;2024-02-23T03:18:04;998.5;;;8.3;72.4
41230;BME280;26964;50.428;19.218;2024-02-23T03:19:05;998.4;;;8.3;72.4
41230;BME280;26964;50.428;19.218;2024-02-23T03:20:05;998.4;;;8.3;72.4
41230;BME280;26964;50.428;19.218;2024-02-23T03:21:05;998.4;;;8.3;72.4
41230;BME280;26964;50.428;19.218;2024-02-23T03:22:04;998.4;;;8.3;72.4
41230;BME280;26964;50.428;19.218;2024-02-23T03:23:04;998.5;;;8.3;72.4
41230;BME280;26964;50.428;19.218;2024-02-23T03:24:04;998.4;;;8.3;72.4
41230;BME280;26964;50.428;19.218;2024-02-23T03:25:05;998.4;;;8.3;72.4
41230;BME280;26964;50.428;19.218;2024-02-23T03:26:08;998.5;;;8.3;72.4
41230;BME280;26964;50.428;19.218;2024-02-23T03:27:05;998.5;;;8.3;72.4
41230;BME280;26964;50.428;19.218;2024-02-23T03:28:04;998.5;;;8.3;72.4
41230;BME280;26964;50.428;19.218;2024-02-23T03:29:05;998.5;;;8.3;72.4
41230;BME280;26964;50.428;19.218;2024-02-23T03:30:05;998.5;;;8.3;72.4
41230;BME280;26964;50.428;19.218;2024-02-23T03:31:07;998.5;;;8.3;72.4
41230;BME280;26964;50.428;19.218;2024-02-23T03:32:05;998.5;;;8.3;72.4
41230;BME280;26964;50.428;19.218;2024-02-23T03:33:04;998.5;;;8.3;72.4
41230;BME280;26964;50.428;19.218;2024-02-23T03:34:04;998.5;;;8.3;72.4
41230;BME280;26964;50.428;19.218;2024-02-23T03:35:05;998.5;;;8.3;72.4
41230;BME280;26964;50.428;19.218;2024-02-23T03:36:04;998.5;;;8.3;72.4
41230;BME280;26964;50.428;19.218;2024-02-23T03:37:05;998.6;;;8.3;72.4
41230;BME280;26964;50.428;19.218;2024-02-23T03:38:04;998.5;;;8.3;72.4
41230;BME280;26964;50.428;19.218;2024-02-23T03:39:05;998.6;;;8.3;72.5
41230;BME280;26964;50.428;19.218;2024-02-23T03:40:05;998.6;;;8.3;72.4
41230;BME280;26964;50.428;19.218;2024-02-23T03:41:04;998.6;;;8.3;72.4
41230;BME280;26964;50.428;19.218;2024-02-23T03:42:04;998.6;;;8.3;72.4
41230;BME280;26964;50.428;19.218;2024-02-23T03:43:04;998.5;;;8.3;72.4
41230;BME280;26964;50.428;19.218;2024-02-23T03:44:05;998.6;;;8.3;72.4
41230;BME280;26964;50.428;19.218;2024-02-23T03:45:05;998.6;;;8.3;72.4
41230;BME280;26964;50.428;19.218;2024-02-23T03:46:05;998.6;;;8.3;72.4
41230;BME280;26964;50.428;19.218;2024-02-23T03:47:04;998.6;;;8.3;72.4
41230;BME280;26964;50.428;19.218;2024-02-23T03:48:04;998.7;;;8.3;72.4
41230;BME280;26964;50.428;19.218;2024-02-23T03:49:05;998.7;;;8.3;72.4
41230;BME280;26964;50.428;19.218;2024-02-23T03:50:05;998.6;;;8.3;72.4
41230;BME280;26964;50.428;19.218;2024-02-23T03:51:05;998.7;;;8.2;72.4
41230;BME280;26964;50.428;19.218;2024-02-23T03:52:09;998.7;;;8.2;72.5
41230;BME280;26964;50.428;19.218;2024-02-23T03:53:05;998.7;;;8.2;72.5
41230;BME280;26964;50.428;19.218;2024-02-23T03:54:04;998.7;;;8.2;72.5
41230;BME280;26964;50.428;19.218;2024-02-23T03:55:05;998.7;;;8.2;72.5
41230;BME280;26964;50.428;19.218;2024-02-23T03:56:05;998.7;;;8.2;72.5
41230;BME280;26964;50.428;19.218;2024-02-23T03:57:04;998.8;;;8.2;72.5
41230;BME280;26964;50.428;19.218;2024-02-23T03:58:05;998.8;;;8.2;72.5
41230;BME280;26964;50.428;19.218;2024-02-23T03:59:05;998.8;;;8.2;72.5
41230;BME280;26964;50.428;19.218;2024-02-23T04:00:05;998.7;;;8.2;72.6
41230;BME280;26964;50.428;19.218;2024-02-23T04:01:04;998.8;;;8.2;72.6
41230;BME280;26964;50.428;19.218;2024-02-23T04:02:04;998.8;;;8.1;72.6
41230;BME280;26964;50.428;19.218;2024-02-23T04:03:04;998.9;;;8.1;72.6
41230;BME280;26964;50.428;19.218;2024-02-23T04:04:04;998.9;;;8.1;72.6
41230;BME280;26964;50.428;19.218;2024-02-23T04:05:05;998.8;;;8.1;72.6
41230;BME280;26964;50.428;19.218;2024-02-23T04:06:04;998.9;;;8.1;72.6
41230;BME280;26964;50.428;19.218;2024-02-23T04:07:04;998.8;;;8.1;72.7
41230;BME280;26964;50.428;19.218;2024-02-23T04:08:04;998.8;;;8.1;72.7
41230;BME280;26964;50.428;19.218;2024-02-23T04:09:04;999.0;;;8.1;72.7
41230;BME280;26964;50.428;19.218;2024-02-23T04:10:05;998.8;;;8.1;72.7
41230;BME280;26964;50.428;19.218;2024-02-23T04:11:05;998.9;;;8.1;72.7
41230;BME280;26964;50.428;19.218;2024-02-23T04:12:05;998.9;;;8.1;72.7
41230;BME280;26964;50.428;19.218;2024-02-23T04:13:08;998.9;;;8.1;72.7
41230;BME280;26964;50.428;19.218;2024-02-23T04:14:05;998.9;;;8.1;72.7
41230;BME280;26964;50.428;19.218;2024-02-23T04:15:04;999.0;;;8.1;72.8
41230;BME280;26964;50.428;19.218;2024-02-23T04:16:04;998.9;;;8.1;72.8
41230;BME280;26964;50.428;19.218;2024-02-23T04:17:05;998.9;;;8.1;72.8
41230;BME280;26964;50.428;19.218;2024-02-23T04:18:04;998.9;;;8.1;72.8
41230;BME280;26964;50.428;19.218;2024-02-23T04:19:04;999.0;;;8.1;72.8
41230;BME280;26964;50.428;19.218;2024-02-23T04:20:06;998.9;;;8.1;72.8
41230;BME280;26964;50.428;19.218;2024-02-23T04:21:04;999.0;;;8.1;72.8
41230;BME280;26964;50.428;19.218;2024-02-23T04:22:05;999.0;;;8.1;72.9
41230;BME280;26964;50.428;19.218;2024-02-23T04:23:05;998.9;;;8.0;72.8
41230;BME280;26964;50.428;19.218;2024-02-23T04:24:04;998.9;;;8.0;72.9
41230;BME280;26964;50.428;19.218;2024-02-23T04:25:04;999.0;;;8.0;72.9
41230;BME280;26964;50.428;19.218;2024-02-23T04:26:05;998.9;;;8.0;72.9
41230;BME280;26964;50.428;19.218;2024-02-23T04:27:04;999.1;;;8.0;72.9
41230;BME280;26964;50.428;19.218;2024-02-23T04:28:04;999.0;;;8.0;72.9
41230;BME280;26964;50.428;19.218;2024-02-23T04:29:04;999.0;;;8.0;72.9
41230;BME280;26964;50.428;19.218;2024-02-23T04:30:05;999.0;;;8.0;72.9
41230;BME280;26964;50.428;19.218;2024-02-23T04:31:05;999.1;;;8.0;72.9
41230;BME280;26964;50.428;19.218;2024-02-23T04:32:05;999.1;;;8.0;72.9
41230;BME280;26964;50.428;19.218;2024-02-23T04:33:05;999.1;;;8.0;72.9
41230;BME280;26964;50.428;19.218;2024-02-23T04:34:08;999.1;;;8.0;72.9
41230;BME280;26964;50.428;19.218;2024-02-23T04:35:05;999.2;;;8.0;72.9
41230;BME280;26964;50.428;19.218;2024-02-23T04:36:04;999.2;;;8.0;73.0
41230;BME280;26964;50.428;19.218;2024-02-23T04:37:04;999.1;;;7.9;73.0
41230;BME280;26964;50.428;19.218;2024-02-23T04:38:05;999.1;;;7.9;73.0
41230;BME280;26964;50.428;19.218;2024-02-23T04:39:05;999.1;;;7.9;73.0
41230;BME280;26964;50.428;19.218;2024-02-23T04:40:05;999.1;;;7.9;73.0
41230;BME280;26964;50.428;19.218;2024-02-23T04:41:04;999.2;;;7.9;73.0
41230;BME280;26964;50.428;19.218;2024-02-23T04:42:04;999.1;;;7.9;73.0
41230;BME280;26964;50.428;19.218;2024-02-23T04:43:04;999.1;;;7.9;73.0
41230;BME280;26964;50.428;19.218;2024-02-23T04:44:05;999.1;;;7.8;73.1
41230;BME280;26964;50.428;19.218;2024-02-23T04:45:05;999.1;;;7.8;73.1
41230;BME280;26964;50.428;19.218;2024-02-23T04:46:05;999.1;;;7.8;73.1
41230;BME280;26964;50.428;19.218;2024-02-23T04:47:04;999.1;;;7.8;73.1
41230;BME280;26964;50.428;19.218;2024-02-23T04:48:04;999.1;;;7.8;73.1
41230;BME280;26964;50.428;19.218;2024-02-23T04:49:05;999.2;;;7.8;73.3
41230;BME280;26964;50.428;19.218;2024-02-23T04:50:05;999.2;;;7.8;73.2
41230;BME280;26964;50.428;19.218;2024-02-23T04:51:04;999.2;;;7.8;73.2
41230;BME280;26964;50.428;19.218;2024-02-23T04:52:05;999.1;;;7.7;73.3
41230;BME280;26964;50.428;19.218;2024-02-23T04:53:04;999.2;;;7.8;73.2
41230;BME280;26964;50.428;19.218;2024-02-23T04:54:05;999.2;;;7.8;73.3
41230;BME280;26964;50.428;19.218;2024-02-23T04:55:04;999.2;;;7.7;73.3
41230;BME280;26964;50.428;19.218;2024-02-23T04:56:04;999.3;;;7.7;73.3
41230;BME280;26964;50.428;19.218;2024-02-23T04:57:05;999.3;;;7.7;73.3
41230;BME280;26964;50.428;19.218;2024-02-23T04:58:06;999.3;;;7.7;73.3
41230;BME280;26964;50.428;19.218;2024-02-23T04:59:05;999.4;;;7.7;73.4
41230;BME280;26964;50.428;19.218;2024-02-23T05:00:05;999.3;;;7.7;73.4
41230;BME280;26964;50.428;19.218;2024-02-23T05:01:04;999.3;;;7.7;73.4
41230;BME280;26964;50.428;19.218;2024-02-23T05:02:04;999.3;;;7.7;73.5
41230;BME280;26964;50.428;19.218;2024-02-23T05:03:05;999.4;;;7.7;73.4
41230;BME280;26964;50.428;19.218;2024-02-23T05:04:04;999.3;;;7.7;73.5
41230;BME280;26964;50.428;19.218;2024-02-23T05:05:04;999.3;;;7.7;73.5
41230;BME280;26964;50.428;19.218;2024-02-23T05:06:04;999.3;;;7.6;73.5
41230;BME280;26964;50.428;19.218;2024-02-23T05:07:05;999.3;;;7.6;73.6
41230;BME280;26964;50.428;19.218;2024-02-23T05:08:04;999.3;;;7.6;73.6
41230;BME280;26964;50.428;19.218;2024-02-23T05:09:04;999.3;;;7.6;73.6
41230;BME280;26964;50.428;19.218;2024-02-23T05:10:04;999.3;;;7.6;73.7
41230;BME280;26964;50.428;19.218;2024-02-23T05:11:05;999.4;;;7.6;73.6
41230;BME280;26964;50.428;19.218;2024-02-23T05:12:04;999.4;;;7.6;73.7
41230;BME280;26964;50.428;19.218;2024-02-23T05:13:04;999.4;;;7.6;73.7
41230;BME280;26964;50.428;19.218;2024-02-23T05:14:05;999.4;;;7.6;73.7
41230;BME280;26964;50.428;19.218;2024-02-23T05:15:07;999.4;;;7.5;73.7
41230;BME280;26964;50.428;19.218;2024-02-23T05:16:04;999.5;;;7.5;73.7
41230;BME280;26964;50.428;19.218;2024-02-23T05:17:05;999.5;;;7.5;73.8
41230;BME280;26964;50.428;19.218;2024-02-23T05:18:05;999.4;;;7.5;73.8
41230;BME280;26964;50.428;19.218;2024-02-23T05:19:05;999.5;;;7.5;73.8
41230;BME280;26964;50.428;19.218;2024-02-23T05:20:05;999.5;;;7.5;73.9
41230;BME280;26964;50.428;19.218;2024-02-23T05:21:04;999.5;;;7.5;73.9
41230;BME280;26964;50.428;19.218;2024-02-23T05:22:05;999.6;;;7.5;73.9
41230;BME280;26964;50.428;19.218;2024-02-23T05:23:04;999.6;;;7.4;73.9
41230;BME280;26964;50.428;19.218;2024-02-23T05:24:04;999.6;;;7.4;74.0
41230;BME280;26964;50.428;19.218;2024-02-23T05:25:04;999.6;;;7.4;74.0
41230;BME280;26964;50.428;19.218;2024-02-23T05:26:05;999.6;;;7.4;74.0
41230;BME280;26964;50.428;19.218;2024-02-23T05:27:04;999.7;;;7.4;74.0
41230;BME280;26964;50.428;19.218;2024-02-23T05:28:04;999.7;;;7.4;74.1
41230;BME280;26964;50.428;19.218;2024-02-23T05:29:05;999.7;;;7.4;74.1
41230;BME280;26964;50.428;19.218;2024-02-23T05:30:05;999.6;;;7.4;74.1
41230;BME280;26964;50.428;19.218;2024-02-23T05:31:05;999.8;;;7.4;74.1
41230;BME280;26964;50.428;19.218;2024-02-23T05:32:04;999.7;;;7.4;74.1
41230;BME280;26964;50.428;19.218;2024-02-23T05:33:04;999.8;;;7.4;74.1
41230;BME280;26964;50.428;19.218;2024-02-23T05:34:05;999.8;;;7.4;74.2
41230;BME280;26964;50.428;19.218;2024-02-23T05:35:05;999.7;;;7.4;74.2
41230;BME280;26964;50.428;19.218;2024-02-23T05:36:06;999.8;;;7.4;74.2
41230;BME280;26964;50.428;19.218;2024-02-23T05:37:05;999.8;;;7.4;74.2
41230;BME280;26964;50.428;19.218;2024-02-23T05:38:05;999.8;;;7.3;74.2
41230;BME280;26964;50.428;19.218;2024-02-23T05:39:05;999.8;;;7.3;74.3
41230;BME280;26964;50.428;19.218;2024-02-23T05:40:05;999.7;;;7.3;74.2
41230;BME280;26964;50.428;19.218;2024-02-23T05:41:04;999.8;;;7.3;74.3
41230;BME280;26964;50.428;19.218;2024-02-23T05:42:04;999.7;;;7.3;74.3